sensor_id;sensor_type;location;lat;lon;timestamp;temperature;humidity
53752;DHT22;41095;53.090;6.692;2023-07-30T00:02:05;16.30;99.90
53752;DHT22;41095;53.090;6.692;2023-07-30T00:04:30;16.20;99.90
53752;DHT22;41095;53.090;6.692;2023-07-30T00:06:56;16.20;99.90
53752;DHT22;41095;53.090;6.692;2023-07-30T00:09:21;16.20;99.90
53752;DHT22;41095;53.090;6.692;2023-07-30T00:11:48;16.20;99.90
53752;DHT22;41095;53.090;6.692;2023-07-30T00:14:13;16.20;99.90
53752;DHT22;41095;53.090;6.692;2023-07-30T00:16:39;16.10;99.90
53752;DHT22;41095;53.090;6.692;2023-07-30T00:19:04;16.10;99.90
53752;DHT22;41095;53.090;6.692;2023-07-30T00:21:30;16.10;99.90
53752;DHT22;41095;53.090;6.692;2023-07-30T00:23:56;16.10;99.90
53752;DHT22;41095;53.090;6.692;2023-07-30T00:26:22;16.00;99.90
53752;DHT22;41095;53.090;6.692;2023-07-30T00:28:51;16.00;99.90
53752;DHT22;41095;53.090;6.692;2023-07-30T00:31:17;15.90;99.90
53752;DHT22;41095;53.090;6.692;2023-07-30T00:33:43;16.00;99.90
53752;DHT22;41095;53.090;6.692;2023-07-30T00:36:08;15.90;99.90
53752;DHT22;41095;53.090;6.692;2023-07-30T00:38:34;15.90;99.90
53752;DHT22;41095;53.090;6.692;2023-07-30T00:41:00;15.80;99.90
53752;DHT22;41095;53.090;6.692;2023-07-30T00:43:25;15.80;99.90
53752;DHT22;41095;53.090;6.692;2023-07-30T00:45:51;15.80;99.90
53752;DHT22;41095;53.090;6.692;2023-07-30T00:48:17;15.80;99.90
53752;DHT22;41095;53.090;6.692;2023-07-30T00:50:43;15.70;99.90
53752;DHT22;41095;53.090;6.692;2023-07-30T00:53:09;15.70;99.90
53752;DHT22;41095;53.090;6.692;2023-07-30T00:55:36;15.70;99.90
53752;DHT22;41095;53.090;6.692;2023-07-30T00:58:03;15.70;99.90
53752;DHT22;41095;53.090;6.692;2023-07-30T01:00:30;15.60;99.90
53752;DHT22;41095;53.090;6.692;2023-07-30T01:02:57;15.60;99.90
53752;DHT22;41095;53.090;6.692;2023-07-30T01:05:23;15.50;99.90
53752;DHT22;41095;53.090;6.692;2023-07-30T01:07:49;15.50;99.90
53752;DHT22;41095;53.090;6.692;2023-07-30T01:10:15;15.50;99.90
53752;DHT22;41095;53.090;6.692;2023-07-30T01:12:41;15.50;99.90
53752;DHT22;41095;53.090;6.692;2023-07-30T01:15:08;15.50;99.90
53752;DHT22;41095;53.090;6.692;2023-07-30T01:17:35;15.50;99.90
53752;DHT22;41095;53.090;6.692;2023-07-30T01:20:00;15.50;99.90
53752;DHT22;41095;53.090;6.692;2023-07-30T01:22:26;15.50;99.90
53752;DHT22;41095;53.090;6.692;2023-07-30T01:24:52;15.50;99.90
53752;DHT22;41095;53.090;6.692;2023-07-30T01:27:29;15.60;99.90
53752;DHT22;41095;53.090;6.692;2023-07-30T01:30:17;15.60;99.90
53752;DHT22;41095;53.090;6.692;2023-07-30T01:32:45;15.60;99.90
53752;DHT22;41095;53.090;6.692;2023-07-30T01:35:13;15.70;99.90
53752;DHT22;41095;53.090;6.692;2023-07-30T01:37:41;15.70;99.90
53752;DHT22;41095;53.090;6.692;2023-07-30T01:40:08;15.70;99.90
53752;DHT22;41095;53.090;6.692;2023-07-30T01:42:34;15.70;99.90
53752;DHT22;41095;53.090;6.692;2023-07-30T01:45:00;15.60;99.90
53752;DHT22;41095;53.090;6.692;2023-07-30T01:47:25;15.60;99.90
53752;DHT22;41095;53.090;6.692;2023-07-30T01:49:51;15.60;99.90
53752;DHT22;41095;53.090;6.692;2023-07-30T01:52:16;15.60;99.90
53752;DHT22;41095;53.090;6.692;2023-07-30T01:54:42;15.60;99.90
53752;DHT22;41095;53.090;6.692;2023-07-30T01:57:08;15.60;99.90
53752;DHT22;41095;53.090;6.692;2023-07-30T01:59:34;15.60;99.90
53752;DHT22;41095;53.090;6.692;2023-07-30T02:01:59;15.50;99.90
53752;DHT22;41095;53.090;6.692;2023-07-30T02:04:25;15.60;99.90
53752;DHT22;41095;53.090;6.692;2023-07-30T02:06:52;15.60;99.90
53752;DHT22;41095;53.090;6.692;2023-07-30T02:09:17;15.60;99.90
53752;DHT22;41095;53.090;6.692;2023-07-30T02:11:43;15.60;99.90
53752;DHT22;41095;53.090;6.692;2023-07-30T02:14:09;15.60;99.90
53752;DHT22;41095;53.090;6.692;2023-07-30T02:16:36;15.60;99.90
53752;DHT22;41095;53.090;6.692;2023-07-30T02:19:01;15.60;99.90
53752;DHT22;41095;53.090;6.692;2023-07-30T02:21:27;15.60;99.90
53752;DHT22;41095;53.090;6.692;2023-07-30T02:23:53;15.50;99.90
53752;DHT22;41095;53.090;6.692;2023-07-30T02:26:19;15.60;99.90
53752;DHT22;41095;53.090;6.692;2023-07-30T02:28:44;15.50;99.90
53752;DHT22;41095;53.090;6.692;2023-07-30T02:31:10;15.50;99.90
53752;DHT22;41095;53.090;6.692;2023-07-30T02:33:35;15.50;99.90
53752;DHT22;41095;53.090;6.692;2023-07-30T02:36:01;15.50;99.90
53752;DHT22;41095;53.090;6.692;2023-07-30T02:38:27;15.40;99.90
53752;DHT22;41095;53.090;6.692;2023-07-30T02:40:53;15.40;99.90
53752;DHT22;41095;53.090;6.692;2023-07-30T02:43:18;15.40;99.90
53752;DHT22;41095;53.090;6.692;2023-07-30T02:45:47;15.40;99.90
53752;DHT22;41095;53.090;6.692;2023-07-30T02:48:13;15.30;99.90
53752;DHT22;41095;53.090;6.692;2023-07-30T02:50:38;15.30;99.90
53752;DHT22;41095;53.090;6.692;2023-07-30T02:53:04;15.30;99.90
53752;DHT22;41095;53.090;6.692;2023-07-30T02:55:30;15.30;99.90
53752;DHT22;41095;53.090;6.692;2023-07-30T02:57:56;15.30;99.90
53752;DHT22;41095;53.090;6.692;2023-07-30T03:00:21;15.30;99.90
53752;DHT22;41095;53.090;6.692;2023-07-30T03:02:47;15.20;99.90
53752;DHT22;41095;53.090;6.692;2023-07-30T03:05:12;15.30;99.90
53752;DHT22;41095;53.090;6.692;2023-07-30T03:07:38;15.30;99.90
53752;DHT22;41095;53.090;6.692;2023-07-30T03:10:04;15.40;99.90
53752;DHT22;41095;53.090;6.692;2023-07-30T03:12:30;15.40;99.90
53752;DHT22;41095;53.090;6.692;2023-07-30T03:14:55;15.40;99.90
53752;DHT22;41095;53.090;6.692;2023-07-30T03:17:21;15.40;99.90
53752;DHT22;41095;53.090;6.692;2023-07-30T03:19:47;15.40;99.90
53752;DHT22;41095;53.090;6.692;2023-07-30T03:22:13;15.40;99.90
53752;DHT22;41095;53.090;6.692;2023-07-30T03:24:38;15.50;99.90
53752;DHT22;41095;53.090;6.692;2023-07-30T03:27:04;15.40;99.90
53752;DHT22;41095;53.090;6.692;2023-07-30T03:29:30;15.40;99.90
53752;DHT22;41095;53.090;6.692;2023-07-30T03:31:56;15.50;99.90
53752;DHT22;41095;53.090;6.692;2023-07-30T03:34:21;15.50;99.90
53752;DHT22;41095;53.090;6.692;2023-07-30T03:36:47;15.40;99.90
53752;DHT22;41095;53.090;6.692;2023-07-30T03:39:13;15.40;99.90
53752;DHT22;41095;53.090;6.692;2023-07-30T03:41:38;15.40;99.90
53752;DHT22;41095;53.090;6.692;2023-07-30T03:44:04;15.40;99.90
53752;DHT22;41095;53.090;6.692;2023-07-30T03:46:30;15.40;99.90
53752;DHT22;41095;53.090;6.692;2023-07-30T03:48:55;15.40;99.90
53752;DHT22;41095;53.090;6.692;2023-07-30T03:51:21;15.40;99.90
53752;DHT22;41095;53.090;6.692;2023-07-30T03:53:47;15.40;99.90
53752;DHT22;41095;53.090;6.692;2023-07-30T03:56:13;15.40;99.90
53752;DHT22;41095;53.090;6.692;2023-07-30T03:58:38;15.40;99.90
53752;DHT22;41095;53.090;6.692;2023-07-30T04:01:04;15.40;99.90
53752;DHT22;41095;53.090;6.692;2023-07-30T04:03:30;15.40;99.90
53752;DHT22;41095;53.090;6.692;2023-07-30T04:05:55;15.40;99.90
53752;DHT22;41095;53.090;6.692;2023-07-30T04:08:21;15.30;99.90
53752;DHT22;41095;53.090;6.692;2023-07-30T04:10:47;15.30;99.90
53752;DHT22;41095;53.090;6.692;2023-07-30T04:13:13;15.30;99.90
53752;DHT22;41095;53.090;6.692;2023-07-30T04:15:39;15.30;99.90
53752;DHT22;41095;53.090;6.692;2023-07-30T04:18:04;15.20;99.90
53752;DHT22;41095;53.090;6.692;2023-07-30T04:20:30;15.20;99.90
53752;DHT22;41095;53.090;6.692;2023-07-30T04:22:56;15.20;99.90
53752;DHT22;41095;53.090;6.692;2023-07-30T04:25:22;15.20;99.90
53752;DHT22;41095;53.090;6.692;2023-07-30T04:27:48;15.20;99.90
53752;DHT22;41095;53.090;6.692;2023-07-30T04:30:13;15.20;99.90
53752;DHT22;41095;53.090;6.692;2023-07-30T04:32:39;15.20;99.90
53752;DHT22;41095;53.090;6.692;2023-07-30T04:35:05;15.20;99.90
53752;DHT22;41095;53.090;6.692;2023-07-30T04:37:31;15.20;99.90
53752;DHT22;41095;53.090;6.692;2023-07-30T04:39:57;15.20;99.90
53752;DHT22;41095;53.090;6.692;2023-07-30T04:42:22;15.20;99.90
53752;DHT22;41095;53.090;6.692;2023-07-30T04:44:48;15.30;99.90
53752;DHT22;41095;53.090;6.692;2023-07-30T04:47:13;15.30;99.90
53752;DHT22;41095;53.090;6.692;2023-07-30T04:49:39;15.30;99.90
53752;DHT22;41095;53.090;6.692;2023-07-30T04:52:09;15.40;99.90
53752;DHT22;41095;53.090;6.692;2023-07-30T04:54:35;15.40;99.90
53752;DHT22;41095;53.090;6.692;2023-07-30T04:57:03;15.50;99.90
53752;DHT22;41095;53.090;6.692;2023-07-30T04:59:29;15.60;99.90
53752;DHT22;41095;53.090;6.692;2023-07-30T05:01:55;15.70;99.90
53752;DHT22;41095;53.090;6.692;2023-07-30T05:04:20;15.80;99.90
53752;DHT22;41095;53.090;6.692;2023-07-30T05:06:46;15.80;99.90
53752;DHT22;41095;53.090;6.692;2023-07-30T05:09:12;15.80;99.90
53752;DHT22;41095;53.090;6.692;2023-07-30T05:11:39;15.90;99.90
53752;DHT22;41095;53.090;6.692;2023-07-30T05:14:04;15.90;99.90
53752;DHT22;41095;53.090;6.692;2023-07-30T05:16:30;15.90;99.90
53752;DHT22;41095;53.090;6.692;2023-07-30T05:18:56;16.00;99.90
53752;DHT22;41095;53.090;6.692;2023-07-30T05:21:21;16.00;99.90
53752;DHT22;41095;53.090;6.692;2023-07-30T05:23:47;16.00;99.90
53752;DHT22;41095;53.090;6.692;2023-07-30T05:26:13;16.10;99.90
53752;DHT22;41095;53.090;6.692;2023-07-30T05:28:38;16.20;99.90
53752;DHT22;41095;53.090;6.692;2023-07-30T05:31:04;16.20;99.90
53752;DHT22;41095;53.090;6.692;2023-07-30T05:33:30;16.20;99.90
53752;DHT22;41095;53.090;6.692;2023-07-30T05:35:56;16.30;99.90
53752;DHT22;41095;53.090;6.692;2023-07-30T05:38:21;16.40;99.90
53752;DHT22;41095;53.090;6.692;2023-07-30T05:40:47;16.40;99.90
53752;DHT22;41095;53.090;6.692;2023-07-30T05:43:13;16.50;99.90
53752;DHT22;41095;53.090;6.692;2023-07-30T05:45:39;16.60;99.90
53752;DHT22;41095;53.090;6.692;2023-07-30T05:48:04;16.60;99.90
53752;DHT22;41095;53.090;6.692;2023-07-30T05:50:30;16.70;99.90
53752;DHT22;41095;53.090;6.692;2023-07-30T05:52:56;16.70;99.90
53752;DHT22;41095;53.090;6.692;2023-07-30T05:55:22;16.80;99.90
53752;DHT22;41095;53.090;6.692;2023-07-30T05:57:47;16.80;99.90
53752;DHT22;41095;53.090;6.692;2023-07-30T06:00:13;16.90;99.90
53752;DHT22;41095;53.090;6.692;2023-07-30T06:02:39;17.00;99.90
53752;DHT22;41095;53.090;6.692;2023-07-30T06:05:05;17.00;99.90
53752;DHT22;41095;53.090;6.692;2023-07-30T06:07:30;17.10;99.90
53752;DHT22;41095;53.090;6.692;2023-07-30T06:09:56;17.10;99.90
53752;DHT22;41095;53.090;6.692;2023-07-30T06:12:22;17.20;99.90
53752;DHT22;41095;53.090;6.692;2023-07-30T06:14:47;17.20;99.90
53752;DHT22;41095;53.090;6.692;2023-07-30T06:17:13;17.30;99.90
53752;DHT22;41095;53.090;6.692;2023-07-30T06:19:39;17.40;99.90
53752;DHT22;41095;53.090;6.692;2023-07-30T06:22:04;17.40;99.90
53752;DHT22;41095;53.090;6.692;2023-07-30T06:24:30;17.50;99.90
53752;DHT22;41095;53.090;6.692;2023-07-30T06:26:56;17.60;99.90
53752;DHT22;41095;53.090;6.692;2023-07-30T06:29:21;17.60;99.90
53752;DHT22;41095;53.090;6.692;2023-07-30T06:31:47;17.60;99.90
53752;DHT22;41095;53.090;6.692;2023-07-30T06:34:13;17.50;99.90
53752;DHT22;41095;53.090;6.692;2023-07-30T06:36:38;17.50;99.90
53752;DHT22;41095;53.090;6.692;2023-07-30T06:39:04;17.50;99.90
53752;DHT22;41095;53.090;6.692;2023-07-30T06:41:30;17.40;99.90
53752;DHT22;41095;53.090;6.692;2023-07-30T06:43:55;17.50;99.90
53752;DHT22;41095;53.090;6.692;2023-07-30T06:46:21;17.40;99.90
53752;DHT22;41095;53.090;6.692;2023-07-30T06:48:47;17.40;99.90
53752;DHT22;41095;53.090;6.692;2023-07-30T06:51:12;17.50;99.90
53752;DHT22;41095;53.090;6.692;2023-07-30T06:53:39;17.60;99.90
53752;DHT22;41095;53.090;6.692;2023-07-30T06:56:05;17.80;99.90
53752;DHT22;41095;53.090;6.692;2023-07-30T06:58:30;17.70;99.90
53752;DHT22;41095;53.090;6.692;2023-07-30T07:00:56;17.90;99.90
53752;DHT22;41095;53.090;6.692;2023-07-30T07:03:22;18.20;99.90
53752;DHT22;41095;53.090;6.692;2023-07-30T07:05:54;18.50;99.90
53752;DHT22;41095;53.090;6.692;2023-07-30T07:08:20;18.60;99.90
53752;DHT22;41095;53.090;6.692;2023-07-30T07:10:46;18.70;99.90
53752;DHT22;41095;53.090;6.692;2023-07-30T07:13:12;18.70;99.90
53752;DHT22;41095;53.090;6.692;2023-07-30T07:15:41;18.80;99.90
53752;DHT22;41095;53.090;6.692;2023-07-30T07:18:07;19.10;99.90
53752;DHT22;41095;53.090;6.692;2023-07-30T07:20:32;19.60;99.90
53752;DHT22;41095;53.090;6.692;2023-07-30T07:22:58;19.70;99.90
53752;DHT22;41095;53.090;6.692;2023-07-30T07:25:24;19.70;99.90
53752;DHT22;41095;53.090;6.692;2023-07-30T07:27:50;19.60;99.90
53752;DHT22;41095;53.090;6.692;2023-07-30T07:30:16;19.40;99.90
53752;DHT22;41095;53.090;6.692;2023-07-30T07:32:41;19.30;99.90
53752;DHT22;41095;53.090;6.692;2023-07-30T07:35:08;19.40;99.90
53752;DHT22;41095;53.090;6.692;2023-07-30T07:37:34;19.50;99.90
53752;DHT22;41095;53.090;6.692;2023-07-30T07:39:59;19.70;99.90
53752;DHT22;41095;53.090;6.692;2023-07-30T07:42:25;20.00;99.90
53752;DHT22;41095;53.090;6.692;2023-07-30T07:44:51;20.10;99.90
53752;DHT22;41095;53.090;6.692;2023-07-30T07:47:16;20.20;99.90
53752;DHT22;41095;53.090;6.692;2023-07-30T07:49:42;20.40;99.90
53752;DHT22;41095;53.090;6.692;2023-07-30T07:52:08;20.40;99.90
53752;DHT22;41095;53.090;6.692;2023-07-30T07:54:34;20.90;99.90
53752;DHT22;41095;53.090;6.692;2023-07-30T07:57:00;21.90;99.90
53752;DHT22;41095;53.090;6.692;2023-07-30T07:59:25;22.60;99.90
53752;DHT22;41095;53.090;6.692;2023-07-30T08:01:53;22.70;99.90
53752;DHT22;41095;53.090;6.692;2023-07-30T08:04:19;23.40;99.90
53752;DHT22;41095;53.090;6.692;2023-07-30T08:06:47;24.20;99.90
53752;DHT22;41095;53.090;6.692;2023-07-30T08:09:12;24.70;99.90
53752;DHT22;41095;53.090;6.692;2023-07-30T08:11:38;24.60;99.90
53752;DHT22;41095;53.090;6.692;2023-07-30T08:14:04;24.10;99.90
53752;DHT22;41095;53.090;6.692;2023-07-30T08:16:30;23.60;99.90
53752;DHT22;41095;53.090;6.692;2023-07-30T08:18:55;23.20;99.90
53752;DHT22;41095;53.090;6.692;2023-07-30T08:21:21;22.90;99.90
53752;DHT22;41095;53.090;6.692;2023-07-30T08:23:47;22.50;99.90
53752;DHT22;41095;53.090;6.692;2023-07-30T08:26:13;21.80;99.90
53752;DHT22;41095;53.090;6.692;2023-07-30T08:28:38;21.30;99.90
53752;DHT22;41095;53.090;6.692;2023-07-30T08:31:05;20.80;99.90
53752;DHT22;41095;53.090;6.692;2023-07-30T08:33:31;20.50;99.90
53752;DHT22;41095;53.090;6.692;2023-07-30T08:35:58;20.00;99.90
53752;DHT22;41095;53.090;6.692;2023-07-30T08:38:24;19.70;99.90
53752;DHT22;41095;53.090;6.692;2023-07-30T08:40:49;19.40;99.90
53752;DHT22;41095;53.090;6.692;2023-07-30T08:43:16;19.20;99.90
53752;DHT22;41095;53.090;6.692;2023-07-30T08:45:41;19.10;99.90
53752;DHT22;41095;53.090;6.692;2023-07-30T08:48:08;19.00;99.90
53752;DHT22;41095;53.090;6.692;2023-07-30T08:50:35;19.00;99.90
53752;DHT22;41095;53.090;6.692;2023-07-30T08:53:02;19.00;99.90
53752;DHT22;41095;53.090;6.692;2023-07-30T08:55:29;19.00;99.90
53752;DHT22;41095;53.090;6.692;2023-07-30T08:57:56;19.00;99.90
53752;DHT22;41095;53.090;6.692;2023-07-30T09:00:25;18.90;99.90
53752;DHT22;41095;53.090;6.692;2023-07-30T09:02:56;18.80;99.90
53752;DHT22;41095;53.090;6.692;2023-07-30T09:05:25;18.80;99.90
53752;DHT22;41095;53.090;6.692;2023-07-30T09:07:50;18.70;99.90
53752;DHT22;41095;53.090;6.692;2023-07-30T09:10:16;18.80;99.90
53752;DHT22;41095;53.090;6.692;2023-07-30T09:12:42;18.90;99.90
53752;DHT22;41095;53.090;6.692;2023-07-30T09:15:08;19.10;99.90
53752;DHT22;41095;53.090;6.692;2023-07-30T09:17:34;19.40;99.90
53752;DHT22;41095;53.090;6.692;2023-07-30T09:20:03;20.50;99.90
53752;DHT22;41095;53.090;6.692;2023-07-30T09:22:32;21.10;99.90
53752;DHT22;41095;53.090;6.692;2023-07-30T09:25:06;21.40;99.90
53752;DHT22;41095;53.090;6.692;2023-07-30T09:27:32;21.10;99.90
53752;DHT22;41095;53.090;6.692;2023-07-30T09:30:00;20.80;99.90
53752;DHT22;41095;53.090;6.692;2023-07-30T09:32:31;20.50;99.90
53752;DHT22;41095;53.090;6.692;2023-07-30T09:35:08;20.20;99.90
53752;DHT22;41095;53.090;6.692;2023-07-30T09:37:39;19.80;99.90
53752;DHT22;41095;53.090;6.692;2023-07-30T09:40:10;19.40;99.90
53752;DHT22;41095;53.090;6.692;2023-07-30T09:42:36;19.10;99.90
53752;DHT22;41095;53.090;6.692;2023-07-30T09:45:05;18.90;99.90
53752;DHT22;41095;53.090;6.692;2023-07-30T09:47:36;18.80;99.90
53752;DHT22;41095;53.090;6.692;2023-07-30T09:50:02;18.70;99.90
53752;DHT22;41095;53.090;6.692;2023-07-30T09:52:29;18.60;99.90
53752;DHT22;41095;53.090;6.692;2023-07-30T09:54:58;18.50;99.90
53752;DHT22;41095;53.090;6.692;2023-07-30T09:57:24;18.50;99.90
53752;DHT22;41095;53.090;6.692;2023-07-30T09:59:50;18.60;99.90
53752;DHT22;41095;53.090;6.692;2023-07-30T10:02:16;18.70;99.90
53752;DHT22;41095;53.090;6.692;2023-07-30T10:04:43;18.80;99.90
53752;DHT22;41095;53.090;6.692;2023-07-30T10:07:20;19.00;99.90
53752;DHT22;41095;53.090;6.692;2023-07-30T10:09:49;19.00;99.90
53752;DHT22;41095;53.090;6.692;2023-07-30T10:12:20;18.80;99.90
53752;DHT22;41095;53.090;6.692;2023-07-30T10:14:47;18.70;99.90
53752;DHT22;41095;53.090;6.692;2023-07-30T10:17:12;18.50;99.90
53752;DHT22;41095;53.090;6.692;2023-07-30T10:19:38;18.50;99.90
53752;DHT22;41095;53.090;6.692;2023-07-30T10:24:39;18.60;99.90
53752;DHT22;41095;53.090;6.692;2023-07-30T10:27:09;18.60;99.90
53752;DHT22;41095;53.090;6.692;2023-07-30T10:29:39;18.80;99.90
53752;DHT22;41095;53.090;6.692;2023-07-30T10:32:07;18.90;99.90
53752;DHT22;41095;53.090;6.692;2023-07-30T10:34:47;19.20;99.90
53752;DHT22;41095;53.090;6.692;2023-07-30T10:37:20;19.60;99.90
53752;DHT22;41095;53.090;6.692;2023-07-30T10:39:49;20.10;99.90
53752;DHT22;41095;53.090;6.692;2023-07-30T10:42:15;20.60;99.90
53752;DHT22;41095;53.090;6.692;2023-07-30T10:44:46;21.50;99.90
53752;DHT22;41095;53.090;6.692;2023-07-30T10:47:11;22.20;99.90
53752;DHT22;41095;53.090;6.692;2023-07-30T10:49:38;22.20;99.90
53752;DHT22;41095;53.090;6.692;2023-07-30T10:52:04;22.00;99.90
53752;DHT22;41095;53.090;6.692;2023-07-30T10:54:34;21.80;99.90
53752;DHT22;41095;53.090;6.692;2023-07-30T10:57:00;21.70;99.90
53752;DHT22;41095;53.090;6.692;2023-07-30T10:59:26;21.50;99.90
53752;DHT22;41095;53.090;6.692;2023-07-30T11:01:52;21.10;99.90
53752;DHT22;41095;53.090;6.692;2023-07-30T11:04:20;20.70;99.90
53752;DHT22;41095;53.090;6.692;2023-07-30T11:06:48;20.20;99.90
53752;DHT22;41095;53.090;6.692;2023-07-30T11:09:22;20.00;99.90
53752;DHT22;41095;53.090;6.692;2023-07-30T11:11:49;19.70;99.90
53752;DHT22;41095;53.090;6.692;2023-07-30T11:14:20;19.50;99.90
53752;DHT22;41095;53.090;6.692;2023-07-30T11:16:57;19.60;99.90
53752;DHT22;41095;53.090;6.692;2023-07-30T11:19:26;19.60;99.90
53752;DHT22;41095;53.090;6.692;2023-07-30T11:21:54;19.90;99.90
53752;DHT22;41095;53.090;6.692;2023-07-30T11:24:20;20.20;99.90
53752;DHT22;41095;53.090;6.692;2023-07-30T11:26:57;20.50;99.90
53752;DHT22;41095;53.090;6.692;2023-07-30T11:29:23;20.70;99.90
53752;DHT22;41095;53.090;6.692;2023-07-30T11:31:49;21.10;99.90
53752;DHT22;41095;53.090;6.692;2023-07-30T11:34:15;21.30;99.90
53752;DHT22;41095;53.090;6.692;2023-07-30T11:36:42;21.50;99.90
53752;DHT22;41095;53.090;6.692;2023-07-30T11:39:08;21.60;99.90
53752;DHT22;41095;53.090;6.692;2023-07-30T11:41:34;21.70;99.90
53752;DHT22;41095;53.090;6.692;2023-07-30T11:44:00;21.70;99.90
53752;DHT22;41095;53.090;6.692;2023-07-30T11:46:26;21.90;99.90
53752;DHT22;41095;53.090;6.692;2023-07-30T11:48:53;21.90;99.90
53752;DHT22;41095;53.090;6.692;2023-07-30T11:51:35;22.00;99.90
53752;DHT22;41095;53.090;6.692;2023-07-30T11:54:01;22.10;99.90
53752;DHT22;41095;53.090;6.692;2023-07-30T11:56:31;22.10;99.90
53752;DHT22;41095;53.090;6.692;2023-07-30T11:59:05;21.80;99.90
53752;DHT22;41095;53.090;6.692;2023-07-30T12:01:33;21.60;99.90
53752;DHT22;41095;53.090;6.692;2023-07-30T12:04:03;21.30;99.90
53752;DHT22;41095;53.090;6.692;2023-07-30T12:06:49;20.90;99.90
53752;DHT22;41095;53.090;6.692;2023-07-30T12:09:20;20.80;99.90
53752;DHT22;41095;53.090;6.692;2023-07-30T12:12:01;20.50;99.90
53752;DHT22;41095;53.090;6.692;2023-07-30T12:17:09;21.00;99.90
53752;DHT22;41095;53.090;6.692;2023-07-30T12:19:35;21.30;99.90
53752;DHT22;41095;53.090;6.692;2023-07-30T12:22:04;21.50;99.90
53752;DHT22;41095;53.090;6.692;2023-07-30T12:24:29;21.30;99.90
53752;DHT22;41095;53.090;6.692;2023-07-30T12:26:55;21.10;99.90
53752;DHT22;41095;53.090;6.692;2023-07-30T12:29:21;20.80;99.90
53752;DHT22;41095;53.090;6.692;2023-07-30T12:31:46;20.30;99.90
53752;DHT22;41095;53.090;6.692;2023-07-30T12:34:15;19.80;99.90
53752;DHT22;41095;53.090;6.692;2023-07-30T12:36:40;19.50;99.90
53752;DHT22;41095;53.090;6.692;2023-07-30T12:39:06;18.70;99.90
53752;DHT22;41095;53.090;6.692;2023-07-30T12:41:33;18.50;99.90
53752;DHT22;41095;53.090;6.692;2023-07-30T12:43:59;18.30;99.90
53752;DHT22;41095;53.090;6.692;2023-07-30T12:46:25;18.30;99.90
53752;DHT22;41095;53.090;6.692;2023-07-30T12:48:56;18.20;99.90
53752;DHT22;41095;53.090;6.692;2023-07-30T12:51:22;18.20;99.90
53752;DHT22;41095;53.090;6.692;2023-07-30T12:53:48;18.20;99.90
53752;DHT22;41095;53.090;6.692;2023-07-30T12:56:15;18.20;99.90
53752;DHT22;41095;53.090;6.692;2023-07-30T12:58:41;18.10;99.90
53752;DHT22;41095;53.090;6.692;2023-07-30T13:01:07;18.20;99.90
53752;DHT22;41095;53.090;6.692;2023-07-30T13:03:32;18.20;99.90
53752;DHT22;41095;53.090;6.692;2023-07-30T13:05:58;18.30;99.90
53752;DHT22;41095;53.090;6.692;2023-07-30T13:08:24;18.50;99.90
53752;DHT22;41095;53.090;6.692;2023-07-30T13:10:50;18.50;99.90
53752;DHT22;41095;53.090;6.692;2023-07-30T13:13:15;18.80;99.90
53752;DHT22;41095;53.090;6.692;2023-07-30T13:15:41;19.20;99.90
53752;DHT22;41095;53.090;6.692;2023-07-30T13:18:07;19.50;99.90
53752;DHT22;41095;53.090;6.692;2023-07-30T13:20:32;19.80;99.90
53752;DHT22;41095;53.090;6.692;2023-07-30T13:22:58;20.10;99.90
53752;DHT22;41095;53.090;6.692;2023-07-30T13:25:24;20.30;99.90
53752;DHT22;41095;53.090;6.692;2023-07-30T13:27:50;20.50;99.90
53752;DHT22;41095;53.090;6.692;2023-07-30T13:30:16;20.70;99.90
53752;DHT22;41095;53.090;6.692;2023-07-30T13:32:41;20.70;99.90
53752;DHT22;41095;53.090;6.692;2023-07-30T13:35:07;20.70;99.90
53752;DHT22;41095;53.090;6.692;2023-07-30T13:37:33;20.70;99.90
53752;DHT22;41095;53.090;6.692;2023-07-30T13:39:59;20.70;99.90
53752;DHT22;41095;53.090;6.692;2023-07-30T13:42:25;20.80;99.90
53752;DHT22;41095;53.090;6.692;2023-07-30T13:44:51;21.00;99.90
53752;DHT22;41095;53.090;6.692;2023-07-30T13:47:17;21.20;99.90
53752;DHT22;41095;53.090;6.692;2023-07-30T13:49:42;21.30;99.90
53752;DHT22;41095;53.090;6.692;2023-07-30T13:52:08;21.40;99.90
53752;DHT22;41095;53.090;6.692;2023-07-30T13:54:34;21.40;99.90
53752;DHT22;41095;53.090;6.692;2023-07-30T13:57:03;21.60;99.90
53752;DHT22;41095;53.090;6.692;2023-07-30T13:59:29;21.60;99.90
53752;DHT22;41095;53.090;6.692;2023-07-30T14:01:54;21.70;99.90
53752;DHT22;41095;53.090;6.692;2023-07-30T14:04:20;21.80;99.90
53752;DHT22;41095;53.090;6.692;2023-07-30T14:06:45;21.90;99.90
53752;DHT22;41095;53.090;6.692;2023-07-30T14:09:11;21.90;99.90
53752;DHT22;41095;53.090;6.692;2023-07-30T14:11:37;21.90;99.90
53752;DHT22;41095;53.090;6.692;2023-07-30T14:14:03;22.00;99.90
53752;DHT22;41095;53.090;6.692;2023-07-30T14:16:30;22.00;99.90
53752;DHT22;41095;53.090;6.692;2023-07-30T14:18:55;22.30;99.90
53752;DHT22;41095;53.090;6.692;2023-07-30T14:21:21;22.20;99.90
53752;DHT22;41095;53.090;6.692;2023-07-30T14:23:47;22.00;99.90
53752;DHT22;41095;53.090;6.692;2023-07-30T14:26:13;21.80;99.90
53752;DHT22;41095;53.090;6.692;2023-07-30T14:28:38;22.00;99.90
53752;DHT22;41095;53.090;6.692;2023-07-30T14:31:04;22.10;99.90
53752;DHT22;41095;53.090;6.692;2023-07-30T14:33:30;22.30;99.90
53752;DHT22;41095;53.090;6.692;2023-07-30T14:35:55;22.20;99.90
53752;DHT22;41095;53.090;6.692;2023-07-30T14:38:21;22.00;99.90
53752;DHT22;41095;53.090;6.692;2023-07-30T14:40:47;21.70;99.90
53752;DHT22;41095;53.090;6.692;2023-07-30T14:43:12;21.30;99.90
53752;DHT22;41095;53.090;6.692;2023-07-30T14:45:38;21.10;99.90
53752;DHT22;41095;53.090;6.692;2023-07-30T14:48:04;20.70;99.90
53752;DHT22;41095;53.090;6.692;2023-07-30T14:50:29;20.40;99.90
53752;DHT22;41095;53.090;6.692;2023-07-30T14:52:55;20.10;99.90
53752;DHT22;41095;53.090;6.692;2023-07-30T14:55:20;20.00;99.90
53752;DHT22;41095;53.090;6.692;2023-07-30T14:57:46;19.80;99.90
53752;DHT22;41095;53.090;6.692;2023-07-30T15:00:12;19.60;99.90
53752;DHT22;41095;53.090;6.692;2023-07-30T15:02:40;19.40;99.90
53752;DHT22;41095;53.090;6.692;2023-07-30T15:05:06;19.40;99.90
53752;DHT22;41095;53.090;6.692;2023-07-30T15:07:32;19.20;99.90
53752;DHT22;41095;53.090;6.692;2023-07-30T15:09:57;19.20;99.90
53752;DHT22;41095;53.090;6.692;2023-07-30T15:12:23;19.10;99.90
53752;DHT22;41095;53.090;6.692;2023-07-30T15:14:49;19.20;99.90
53752;DHT22;41095;53.090;6.692;2023-07-30T15:17:14;19.20;99.90
53752;DHT22;41095;53.090;6.692;2023-07-30T15:19:40;19.20;99.90
53752;DHT22;41095;53.090;6.692;2023-07-30T15:22:06;19.30;99.90
53752;DHT22;41095;53.090;6.692;2023-07-30T15:24:32;19.30;99.90
53752;DHT22;41095;53.090;6.692;2023-07-30T15:26:57;19.30;99.90
53752;DHT22;41095;53.090;6.692;2023-07-30T15:29:23;19.30;99.90
53752;DHT22;41095;53.090;6.692;2023-07-30T15:31:50;19.30;99.90